Airport View

Enter AWOS ICAO identifier for current METAR.

ex. KFNL

KSBM 120553Z AUTO 00000KT 10SM OVC095 M11/M15 A3047 RMK AO2 SLP335 T11061150 11106 21128 411001144 58002

12 Dec 2019 06:38

Frequency: 110.0

Phone: 920-467-0744

Other Area AWOS: KMTW - KETB - KFLD - KOSH

TAF KATW 120520Z 1206/1306 14003KT P6SM BKN080 FM121200 13008KT P6SM -SN OVC060 FM121500 14009KT 4SM -SN OVC035 FM121600 17009KT 1 1/2SM -SN OVC015 FM122200 23006KT 4SM -SN OVC018 FM130400 26004KT 5SM BR OVC027